Time;durP1;ratioP1;P1;durP2;ratioP2;P2;SDS_P1;SDS_P2;PMS_P1;PMS_P2;Temp;Humidity;BMP_temperature;BMP_pressure;BME280_temperature;BME280_humidity;BME280_pressure;Samples;Min_cycle;Max_cycle;Signal;HPM_P1;HPM_P2
2022/08/11 00:00:36;;;;;;;;;;;22.40;94.70;;;;;;5037747;28;20063;-77
2022/08/11 00:03:06;;;;;;;;;;;22.30;94.80;;;;;;5037759;28;20008;-77
2022/08/11 00:05:33;;;;;;;;;;;22.30;95.60;;;;;;5037683;28;19956;-77
2022/08/11 00:08:00;;;;;;;;;;;22.20;95.90;;;;;;5037250;28;20364;-77
2022/08/11 00:10:26;;;;;;;;;;;22.20;97.50;;;;;;5036950;28;20421;-77
2022/08/11 00:12:57;;;;;;;;;;;22.10;99.00;;;;;;5036636;28;19995;-77
2022/08/11 00:15:27;;;;;;;;;;;22.10;99.90;;;;;;5036404;28;20307;-77
2022/08/11 00:17:57;;;;;;;;;;;22.00;99.90;;;;;;5036180;28;19935;-78
2022/08/11 00:20:28;;;;;;;;;;;22.00;99.90;;;;;;5036568;28;19913;-76
2022/08/11 00:23:00;;;;;;;;;;;22.00;99.90;;;;;;5036634;28;19917;-77
2022/08/11 00:25:26;;;;;;;;;;;21.90;99.90;;;;;;5035596;28;19944;-77
2022/08/11 00:27:51;;;;;;;;;;;21.90;99.90;;;;;;5034735;28;19913;-77
2022/08/11 00:30:17;;;;;;;;;;;21.80;99.90;;;;;;5034668;28;19913;-77
2022/08/11 00:32:45;;;;;;;;;;;21.80;99.90;;;;;;5035518;28;19959;-77
2022/08/11 00:35:13;;;;;;;;;;;21.80;99.90;;;;;;5035090;28;20009;-76
2022/08/11 00:37:43;;;;;;;;;;;21.80;99.90;;;;;;5034943;28;20016;-76
2022/08/11 00:40:15;;;;;;;;;;;21.80;99.90;;;;;;5035075;28;19909;-76
2022/08/11 00:42:41;;;;;;;;;;;21.80;99.90;;;;;;5040901;28;19909;-77
2022/08/11 00:45:06;;;;;;;;;;;21.70;99.90;;;;;;5035438;28;19916;-77
2022/08/11 00:47:35;;;;;;;;;;;21.70;99.90;;;;;;5034963;28;20012;-77
2022/08/11 00:50:10;;;;;;;;;;;21.60;99.90;;;;;;5035183;28;19980;-77
2022/08/11 00:53:02;;;;;;;;;;;21.60;99.90;;;;;;5034842;28;20418;-77
2022/08/11 00:55:45;;;;;;;;;;;21.50;99.90;;;;;;5071462;22;19936;-88
2022/08/11 00:58:11;;;;;;;;;;;21.50;99.90;;;;;;5054119;28;19913;-88
2022/08/11 01:01:00;;;;;;;;;;;21.40;99.90;;;;;;5054759;28;19909;-88
2022/08/11 01:03:45;;;;;;;;;;;21.30;99.90;;;;;;5054449;28;20358;-88
2022/08/11 01:06:31;;;;;;;;;;;21.30;99.90;;;;;;5053417;28;19917;-88
2022/08/11 01:09:15;;;;;;;;;;;21.30;99.90;;;;;;5054084;28;19963;-89
2022/08/11 01:11:59;;;;;;;;;;;21.30;99.90;;;;;;5054175;28;19959;-88
2022/08/11 01:14:44;;;;;;;;;;;21.20;99.90;;;;;;5054616;28;19909;-89
2022/08/11 01:17:28;;;;;;;;;;;21.20;99.90;;;;;;5054232;28;20321;-88
2022/08/11 01:20:12;;;;;;;;;;;21.10;99.90;;;;;;5054704;28;19909;-89
2022/08/11 01:22:41;;;;;;;;;;;21.00;99.90;;;;;;5054738;28;19916;-88
2022/08/11 01:25:25;;;;;;;;;;;21.00;99.90;;;;;;5054302;28;19916;-88
2022/08/11 01:27:57;;;;;;;;;;;21.00;99.90;;;;;;5054539;28;19912;-88
2022/08/11 01:30:36;;;;;;;;;;;20.90;99.90;;;;;;5054693;28;20386;-88
2022/08/11 01:33:18;;;;;;;;;;;20.90;99.90;;;;;;5054301;28;20427;-88
2022/08/11 01:35:47;;;;;;;;;;;20.80;99.90;;;;;;5053994;28;20374;-88
2022/08/11 01:38:31;;;;;;;;;;;20.80;99.90;;;;;;5054170;28;19908;-88
2022/08/11 01:41:06;;;;;;;;;;;20.70;99.90;;;;;;5054181;28;20046;-88
2022/08/11 01:46:32;;;;;;;;;;;20.70;99.90;;;;;;5055020;28;19992;-89
2022/08/11 01:49:10;;;;;;;;;;;20.60;99.90;;;;;;5054223;28;19913;-89
2022/08/11 01:51:43;;;;;;;;;;;20.50;99.90;;;;;;5054159;28;19909;-88
2022/08/11 01:54:16;;;;;;;;;;;20.50;99.90;;;;;;5053890;28;19967;-88
2022/08/11 01:56:55;;;;;;;;;;;20.50;99.90;;;;;;5054221;28;20267;-89
2022/08/11 01:59:21;;;;;;;;;;;20.40;99.90;;;;;;5054087;28;19913;-88
2022/08/11 02:02:09;;;;;;;;;;;20.40;99.90;;;;;;5054159;28;19909;-89
2022/08/11 02:04:38;;;;;;;;;;;20.40;99.90;;;;;;5054319;28;20379;-88
2022/08/11 02:07:12;;;;;;;;;;;20.40;99.90;;;;;;5053716;28;19916;-88
2022/08/11 02:09:40;;;;;;;;;;;20.30;99.90;;;;;;5054164;28;19931;-88
2022/08/11 02:12:14;;;;;;;;;;;20.30;99.90;;;;;;5053911;28;19932;-88
2022/08/11 02:14:51;;;;;;;;;;;20.30;99.90;;;;;;5054353;28;19913;-88
2022/08/11 02:17:32;;;;;;;;;;;20.30;99.90;;;;;;5053948;28;20007;-88
2022/08/11 02:26:02;;;;;;;;;;;20.10;99.90;;;;;;5055193;28;19908;-87
2022/08/11 02:28:41;;;;;;;;;;;20.10;99.90;;;;;;5045569;28;19924;-88
2022/08/11 02:33:58;;;;;;;;;;;20.00;99.90;;;;;;5055300;28;20420;-88
2022/08/11 02:36:35;;;;;;;;;;;20.00;99.90;;;;;;5053283;28;19913;-88
2022/08/11 02:39:05;;;;;;;;;;;20.00;99.90;;;;;;5053600;28;19909;-89
2022/08/11 02:44:38;;;;;;;;;;;19.90;99.90;;;;;;5057006;28;19915;-88
2022/08/11 02:47:13;;;;;;;;;;;19.90;99.90;;;;;;5056675;28;19916;-89
2022/08/11 02:49:54;;;;;;;;;;;19.90;99.90;;;;;;5056959;28;19909;-88
2022/08/11 02:52:34;;;;;;;;;;;19.80;99.90;;;;;;5056613;28;19940;-88
2022/08/11 02:55:15;;;;;;;;;;;19.80;99.90;;;;;;5056442;28;19916;-88
2022/08/11 02:57:53;;;;;;;;;;;19.80;99.90;;;;;;5056542;28;19935;-88
2022/08/11 03:00:20;;;;;;;;;;;19.80;99.90;;;;;;5056297;28;19909;-88
2022/08/11 03:02:52;;;;;;;;;;;19.70;99.90;;;;;;5056472;28;19909;-88
2022/08/11 03:05:30;;;;;;;;;;;19.70;99.90;;;;;;5056345;28;19916;-88
2022/08/11 03:08:14;;;;;;;;;;;19.70;99.90;;;;;;5056301;28;20386;-88
2022/08/11 03:16:45;;;;;;;;;;;19.60;99.90;;;;;;5057383;28;19919;-88
2022/08/11 03:19:17;;;;;;;;;;;19.60;99.90;;;;;;5055847;28;19913;-88
2022/08/11 03:21:50;;;;;;;;;;;19.60;99.90;;;;;;5056269;28;19908;-88
2022/08/11 03:24:43;;;;;;;;;;;19.50;99.90;;;;;;5056576;28;19999;-88
2022/08/11 03:27:28;;;;;;;;;;;19.50;99.90;;;;;;5052148;28;19919;-88
2022/08/11 03:30:15;;;;;;;;;;;19.50;99.90;;;;;;5058052;28;20014;-89
2022/08/11 03:36:13;;;;;;;;;;;19.40;99.90;;;;;;5057338;28;20408;-89
2022/08/11 03:39:01;;;;;;;;;;;19.40;99.90;;;;;;4978931;28;20363;-88
2022/08/11 03:41:44;;;;;;;;;;;19.40;99.90;;;;;;5008131;28;19909;-88
2022/08/11 03:44:13;;;;;;;;;;;19.30;99.90;;;;;;5056102;28;19908;-88
2022/08/11 03:46:44;;;;;;;;;;;19.30;99.90;;;;;;5055717;28;20289;-88
2022/08/11 03:49:27;;;;;;;;;;;19.30;99.90;;;;;;5055751;28;19943;-89
2022/08/11 03:51:53;;;;;;;;;;;19.30;99.90;;;;;;5056024;28;19915;-89
2022/08/11 03:54:39;;;;;;;;;;;19.20;99.90;;;;;;5055502;28;19943;-88
2022/08/11 03:57:05;;;;;;;;;;;19.20;99.90;;;;;;5054837;28;19909;-88
2022/08/11 03:59:50;;;;;;;;;;;19.20;99.90;;;;;;5054838;28;19926;-88
2022/08/11 04:02:18;;;;;;;;;;;19.10;99.90;;;;;;5055507;28;19916;-88
2022/08/11 04:05:02;;;;;;;;;;;19.10;99.90;;;;;;5055078;28;19909;-89
2022/08/11 04:07:31;;;;;;;;;;;19.10;99.90;;;;;;5054584;28;19928;-88
2022/08/11 04:10:09;;;;;;;;;;;19.00;99.90;;;;;;5054624;28;19908;-89
2022/08/11 04:12:45;;;;;;;;;;;19.00;99.90;;;;;;5054967;28;19958;-88
2022/08/11 04:18:27;;;;;;;;;;;18.90;99.90;;;;;;5035306;28;19971;-88
2022/08/11 04:20:56;;;;;;;;;;;18.90;99.90;;;;;;5054460;28;19956;-88
2022/08/11 04:23:27;;;;;;;;;;;18.90;99.90;;;;;;5054276;28;19917;-88
2022/08/11 04:25:53;;;;;;;;;;;18.90;99.90;;;;;;5053958;28;20441;-88
2022/08/11 04:28:24;;;;;;;;;;;18.90;99.90;;;;;;5054345;28;19912;-88
2022/08/11 04:30:56;;;;;;;;;;;18.80;99.90;;;;;;5054232;28;19909;-88
2022/08/11 04:33:40;;;;;;;;;;;18.90;99.90;;;;;;5054250;28;19919;-88
2022/08/11 04:37:30;;;;;;;;;;;18.80;99.90;;;;;;5053855;28;20408;-87
2022/08/11 04:39:07;;;;;;;;;;;18.80;99.90;;;;;;5055123;28;19955;-88
2022/08/11 04:44:42;;;;;;;;;;;18.80;99.90;;;;;;5055763;28;19931;-88
2022/08/11 04:47:07;;;;;;;;;;;18.80;99.90;;;;;;5053747;28;19913;-88
2022/08/11 05:01:41;;;;;;;;;;;19.00;99.90;;;;;;5055177;28;19971;-88
2022/08/11 05:07:07;;;;;;;;;;;19.10;99.90;;;;;;5054259;28;19935;-88
2022/08/11 05:09:51;;;;;;;;;;;19.10;99.90;;;;;;5053955;28;19908;-88
2022/08/11 05:12:28;;;;;;;;;;;19.20;99.90;;;;;;5053648;28;20418;-88
2022/08/11 05:34:53;;;;;;;;;;;19.80;99.90;;;;;;5055618;28;19915;-88
2022/08/11 05:37:21;;;;;;;;;;;19.90;99.90;;;;;;5051883;28;19909;-89
2022/08/11 05:56:28;;;;;;;;;;;20.70;99.90;;;;;;5055384;28;19923;-86
2022/08/11 05:58:54;;;;;;;;;;;20.80;99.90;;;;;;5053135;28;19999;-88
2022/08/11 06:01:22;;;;;;;;;;;20.90;99.90;;;;;;5052415;28;20278;-89
2022/08/11 06:06:33;;;;;;;;;;;21.20;99.90;;;;;;5053520;28;20289;-89
2022/08/11 06:08:59;;;;;;;;;;;21.40;99.90;;;;;;5051386;28;19913;-88
2022/08/11 06:11:26;;;;;;;;;;;21.50;99.90;;;;;;5051475;28;19952;-89
2022/08/11 06:13:51;;;;;;;;;;;21.70;99.90;;;;;;5047871;28;19967;-89
2022/08/11 06:16:21;;;;;;;;;;;21.80;99.90;;;;;;5048699;28;19917;-89
2022/08/11 06:18:47;;;;;;;;;;;22.00;99.90;;;;;;5069145;28;19963;-89
2022/08/11 06:21:14;;;;;;;;;;;22.10;99.90;;;;;;5052005;28;19913;-89
2022/08/11 06:23:41;;;;;;;;;;;22.20;99.90;;;;;;5051981;28;19999;-89
2022/08/11 06:26:07;;;;;;;;;;;22.40;99.90;;;;;;5051531;28;19909;-88
2022/08/11 06:28:35;;;;;;;;;;;22.50;99.90;;;;;;5034867;28;19913;-87
2022/08/11 06:31:02;;;;;;;;;;;22.60;99.90;;;;;;5035105;28;19913;-88
2022/08/11 06:33:42;;;;;;;;;;;22.70;99.90;;;;;;5035182;28;19909;-88
2022/08/11 06:36:15;;;;;;;;;;;22.80;99.90;;;;;;5035055;28;19916;-90
2022/08/11 06:39:00;;;;;;;;;;;23.00;99.90;;;;;;5034924;28;19978;-88
2022/08/11 06:41:29;;;;;;;;;;;23.10;99.90;;;;;;5034934;28;19909;-88
2022/08/11 06:44:09;;;;;;;;;;;23.10;99.90;;;;;;5034810;28;19916;-88
2022/08/11 06:46:37;;;;;;;;;;;23.20;99.90;;;;;;5034710;28;20166;-88
2022/08/11 06:49:04;;;;;;;;;;;23.30;99.90;;;;;;5034478;28;19913;-87
2022/08/11 06:51:30;;;;;;;;;;;23.50;99.90;;;;;;5035095;28;19963;-88
2022/08/11 06:53:58;;;;;;;;;;;23.60;99.90;;;;;;5034554;28;19913;-88
2022/08/11 07:02:15;;;;;;;;;;;24.10;99.90;;;;;;5073795;28;19918;-85
2022/08/11 07:04:45;;;;;;;;;;;24.20;99.90;;;;;;5074023;28;20015;-86
2022/08/11 07:15:50;;;;;;;;;;;24.70;95.20;;;;;;5054752;28;20018;-85
2022/08/11 07:29:45;;;;;;;;;;;25.30;91.60;;;;;;5074515;28;19915;-86
2022/08/11 07:32:16;;;;;;;;;;;25.30;90.50;;;;;;5074374;28;19991;-85
2022/08/11 07:34:45;;;;;;;;;;;25.40;91.00;;;;;;5073508;28;19915;-86
2022/08/11 07:37:14;;;;;;;;;;;25.50;88.10;;;;;;5074516;28;19959;-85
2022/08/11 07:39:43;;;;;;;;;;;25.60;89.40;;;;;;5074592;28;20061;-85
2022/08/11 07:42:13;;;;;;;;;;;25.70;88.50;;;;;;5073277;28;19915;-87
2022/08/11 07:52:54;;;;;;;;;;;26.20;86.60;;;;;;5074794;28;20418;-86
2022/08/11 07:55:21;;;;;;;;;;;26.20;84.40;;;;;;5072932;28;19908;-86
2022/08/11 08:19:58;;;;;;;;;;;29.20;72.70;;;;;;5073811;28;19954;-85
2022/08/11 08:22:23;;;;;;;;;;;30.50;64.70;;;;;;5073969;28;19935;-86
2022/08/11 08:24:50;;;;;;;;;;;31.50;60.40;;;;;;5073677;28;19908;-87
2022/08/11 08:27:16;;;;;;;;;;;32.60;57.00;;;;;;5071926;28;19913;-86
2022/08/11 08:32:27;;;;;;;;;;;34.80;50.00;;;;;;5081039;28;19931;-87
2022/08/11 08:34:54;;;;;;;;;;;36.00;47.80;;;;;;5054660;28;19908;-87
2022/08/11 08:37:22;;;;;;;;;;;36.60;44.80;;;;;;5061414;28;19909;-87
2022/08/11 08:39:48;;;;;;;;;;;37.20;42.00;;;;;;5066675;28;19920;-88
2022/08/11 08:42:17;;;;;;;;;;;37.30;40.20;;;;;;5069380;28;19908;-88
2022/08/11 08:44:44;;;;;;;;;;;37.80;40.40;;;;;;5074668;28;20000;-88
2022/08/11 08:47:12;;;;;;;;;;;38.60;39.20;;;;;;5071061;28;19921;-84
2022/08/11 08:49:40;;;;;;;;;;;39.10;36.90;;;;;;5071856;28;19996;-84
2022/08/11 08:52:09;;;;;;;;;;;39.40;36.40;;;;;;5072955;28;19942;-86
2022/08/11 08:54:36;;;;;;;;;;;40.00;34.80;;;;;;5071790;28;20516;-87
2022/08/11 08:57:06;;;;;;;;;;;40.60;35.40;;;;;;5081280;28;19920;-85
2022/08/11 08:59:34;;;;;;;;;;;41.20;34.50;;;;;;5088162;28;19952;-86
2022/08/11 09:02:01;;;;;;;;;;;41.80;33.20;;;;;;5086536;28;20006;-85
2022/08/11 09:04:27;;;;;;;;;;;41.90;31.10;;;;;;5074046;28;19995;-85
2022/08/11 09:06:54;;;;;;;;;;;42.00;30.70;;;;;;5071666;28;19912;-85
2022/08/11 09:09:20;;;;;;;;;;;42.30;30.00;;;;;;5064328;28;19947;-85
2022/08/11 09:11:49;;;;;;;;;;;42.40;30.50;;;;;;5061098;28;19944;-86
2022/08/11 09:14:59;;;;;;;;;;;42.80;30.00;;;;;;5068909;28;20367;-88
2022/08/11 09:17:11;;;;;;;;;;;43.30;29.90;;;;;;5072231;28;20009;-87
2022/08/11 09:19:40;;;;;;;;;;;43.90;28.50;;;;;;5074406;28;19908;-88
2022/08/11 09:27:34;;;;;;;;;;;44.70;26.90;;;;;;5071642;28;19923;-84
2022/08/11 09:30:00;;;;;;;;;;;45.10;27.40;;;;;;5057607;28;20007;-89
2022/08/11 09:32:28;;;;;;;;;;;45.70;27.10;;;;;;5088585;28;19912;-86
2022/08/11 09:34:53;;;;;;;;;;;46.10;27.50;;;;;;5075161;28;19908;-86
2022/08/11 09:45:36;;;;;;;;;;;46.90;24.40;;;;;;5073013;28;19915;-85
2022/08/11 09:48:04;;;;;;;;;;;47.10;24.50;;;;;;5074277;28;19912;-85
2022/08/11 09:50:31;;;;;;;;;;;47.20;24.40;;;;;;5069980;28;19908;-85
2022/08/11 09:52:58;;;;;;;;;;;47.80;24.80;;;;;;5069517;28;19909;-85
2022/08/11 09:55:24;;;;;;;;;;;48.00;23.50;;;;;;5055412;28;20004;-85
2022/08/11 10:00:36;;;;;;;;;;;48.40;23.60;;;;;;5053827;28;19916;-86
2022/08/11 10:03:05;;;;;;;;;;;48.60;23.80;;;;;;5052539;28;19908;-86
2022/08/11 10:08:18;;;;;;;;;;;48.50;23.10;;;;;;5052920;28;19919;-89
2022/08/11 10:10:44;;;;;;;;;;;48.50;22.50;;;;;;5050764;28;20000;-89
2022/08/11 10:13:13;;;;;;;;;;;49.10;22.50;;;;;;5050969;28;19952;-87
2022/08/11 10:15:41;;;;;;;;;;;49.20;22.00;;;;;;5051175;28;20395;-89
2022/08/11 10:20:57;;;;;;;;;;;49.00;21.50;;;;;;5057703;28;19916;-85
2022/08/11 10:33:58;;;;;;;;;;;47.10;21.60;;;;;;5052866;28;19916;-90
2022/08/11 10:34:46;;;;;;;;;;;44.50;22.20;;;;;;5036165;28;19916;-90
2022/08/11 10:37:13;;;;;;;;;;;43.20;23.30;;;;;;5063537;28;20314;-88
2022/08/11 10:39:39;;;;;;;;;;;42.70;23.50;;;;;;5068718;28;19908;-86
2022/08/11 10:44:50;;;;;;;;;;;41.40;24.80;;;;;;5065672;28;20440;-89
2022/08/11 10:47:49;;;;;;;;;;;40.00;24.40;;;;;;5070322;28;19913;-89
2022/08/11 11:01:07;;;;;;;;;;;35.90;29.30;;;;;;5072223;28;20357;-87
2022/08/11 11:03:34;;;;;;;;;;;35.50;30.00;;;;;;5070400;28;19909;-88
2022/08/11 11:06:03;;;;;;;;;;;35.20;29.60;;;;;;5071422;28;19909;-87
2022/08/11 11:11:16;;;;;;;;;;;34.60;29.20;;;;;;5075385;28;19915;-90
2022/08/11 11:19:17;;;;;;;;;;;34.40;30.00;;;;;;5075619;28;19912;-90
2022/08/11 11:21:45;;;;;;;;;;;34.30;30.00;;;;;;5074000;28;19916;-89
2022/08/11 11:24:32;;;;;;;;;;;34.20;29.40;;;;;;5075348;28;19971;-89
2022/08/11 11:27:11;;;;;;;;;;;34.10;29.80;;;;;;5073503;28;19916;-88
2022/08/11 11:29:43;;;;;;;;;;;34.00;29.70;;;;;;5073923;28;19909;-88
2022/08/11 11:32:09;;;;;;;;;;;33.90;30.10;;;;;;5073482;28;19908;-88
2022/08/11 11:34:34;;;;;;;;;;;33.70;30.70;;;;;;5073661;28;19958;-90
2022/08/11 11:37:00;;;;;;;;;;;33.60;30.30;;;;;;5073002;28;19909;-90
2022/08/11 11:39:27;;;;;;;;;;;33.50;30.50;;;;;;5073288;28;19913;-90
2022/08/11 11:41:54;;;;;;;;;;;33.50;30.80;;;;;;5074549;28;19960;-90
2022/08/11 11:44:21;;;;;;;;;;;33.50;30.30;;;;;;5074329;28;20359;-89
2022/08/11 11:46:48;;;;;;;;;;;33.40;30.80;;;;;;5072958;28;20395;-88
2022/08/11 11:49:15;;;;;;;;;;;33.40;30.20;;;;;;5073194;28;20430;-89
2022/08/11 11:51:42;;;;;;;;;;;33.40;30.30;;;;;;5073589;28;19931;-89
2022/08/11 11:54:08;;;;;;;;;;;33.30;31.90;;;;;;5073159;28;19961;-87
2022/08/11 11:56:35;;;;;;;;;;;33.30;30.40;;;;;;5072224;28;19924;-87
2022/08/11 12:01:45;;;;;;;;;;;33.20;30.40;;;;;;5074548;28;19915;-88
2022/08/11 12:04:12;;;;;;;;;;;33.10;29.90;;;;;;5072950;28;19909;-89
2022/08/11 12:06:38;;;;;;;;;;;33.10;31.70;;;;;;5072143;28;19916;-87
2022/08/11 12:09:04;;;;;;;;;;;33.20;31.00;;;;;;5072880;28;19908;-88
2022/08/11 12:14:18;;;;;;;;;;;33.50;30.80;;;;;;5061165;28;19967;-86
2022/08/11 12:16:44;;;;;;;;;;;34.10;30.90;;;;;;5051545;28;20330;-86
2022/08/11 12:19:17;;;;;;;;;;;34.50;31.40;;;;;;5052758;28;19917;-90
2022/08/11 12:27:22;;;;;;;;;;;34.10;30.00;;;;;;5053989;28;19916;-89
2022/08/11 12:29:58;;;;;;;;;;;34.00;29.80;;;;;;5053975;28;19909;-88
2022/08/11 12:32:25;;;;;;;;;;;33.80;30.50;;;;;;5053924;28;19909;-89
2022/08/11 12:34:51;;;;;;;;;;;33.90;29.30;;;;;;5052515;28;19909;-88
2022/08/11 12:37:21;;;;;;;;;;;34.50;29.80;;;;;;5052146;28;20438;-88
2022/08/11 12:45:27;;;;;;;;;;;35.30;30.00;;;;;;5053898;28;19958;-87
2022/08/11 12:53:32;;;;;;;;;;;35.10;30.00;;;;;;5053420;28;19999;-88
2022/08/11 12:58:47;;;;;;;;;;;34.60;30.10;;;;;;5063476;28;19970;-86
2022/08/11 13:06:41;;;;;;;;;;;34.30;28.80;;;;;;5052651;28;19916;-87
2022/08/11 13:09:08;;;;;;;;;;;34.20;31.00;;;;;;5053171;28;19909;-86
2022/08/11 13:14:19;;;;;;;;;;;34.10;30.40;;;;;;5052923;28;19935;-87
2022/08/11 13:19:30;;;;;;;;;;;34.00;30.90;;;;;;5052990;28;20027;-87
2022/08/11 13:21:56;;;;;;;;;;;33.90;29.80;;;;;;5052564;28;19956;-88
2022/08/11 13:24:22;;;;;;;;;;;34.00;29.70;;;;;;5051301;28;19909;-88
2022/08/11 13:26:49;;;;;;;;;;;33.90;30.80;;;;;;5066635;28;19915;-88
2022/08/11 13:29:16;;;;;;;;;;;34.00;31.30;;;;;;5071977;28;19914;-89
2022/08/11 13:31:41;;;;;;;;;;;34.00;30.90;;;;;;5070880;28;20414;-90
2022/08/11 13:34:08;;;;;;;;;;;34.00;31.80;;;;;;5073212;28;19963;-87
2022/08/11 13:36:34;;;;;;;;;;;34.00;32.60;;;;;;5073172;28;19909;-87
2022/08/11 13:39:01;;;;;;;;;;;34.10;30.20;;;;;;5075071;28;19920;-87
2022/08/11 13:41:40;;;;;;;;;;;34.10;31.10;;;;;;5088099;22;19940;-84
2022/08/11 13:44:07;;;;;;;;;;;34.20;32.90;;;;;;5050576;28;19909;-85
2022/08/11 13:46:32;;;;;;;;;;;34.20;29.80;;;;;;5051387;28;19912;-84
2022/08/11 13:48:58;;;;;;;;;;;34.20;33.80;;;;;;5050623;28;19999;-86
2022/08/11 13:51:32;;;;;;;;;;;34.20;31.50;;;;;;5050908;28;19909;-86
2022/08/11 13:53:59;;;;;;;;;;;34.20;32.10;;;;;;5052156;28;19916;-87
2022/08/11 13:56:26;;;;;;;;;;;34.20;31.20;;;;;;5050159;28;19913;-86
2022/08/11 13:58:52;;;;;;;;;;;34.20;30.70;;;;;;5050367;28;19966;-87
2022/08/11 14:01:19;;;;;;;;;;;34.10;32.80;;;;;;5050668;28;19908;-87
2022/08/11 14:03:45;;;;;;;;;;;34.20;33.80;;;;;;5050185;28;19909;-86
2022/08/11 14:06:11;;;;;;;;;;;34.20;34.80;;;;;;5045566;28;19917;-86
2022/08/11 14:08:37;;;;;;;;;;;34.20;32.80;;;;;;5030382;28;20269;-85
2022/08/11 14:13:50;;;;;;;;;;;34.10;32.40;;;;;;5032426;28;19964;-84
2022/08/11 14:16:18;;;;;;;;;;;34.10;32.20;;;;;;5035727;28;19931;-83
2022/08/11 14:18:45;;;;;;;;;;;34.10;31.20;;;;;;5050137;28;19916;-83
2022/08/11 14:23:58;;;;;;;;;;;34.10;31.50;;;;;;5058445;28;19967;-83
2022/08/11 14:26:27;;;;;;;;;;;34.20;30.80;;;;;;5034739;28;19913;-83
2022/08/11 14:28:54;;;;;;;;;;;34.20;32.00;;;;;;5028281;28;19948;-83
2022/08/11 14:31:21;;;;;;;;;;;34.30;31.40;;;;;;5037140;28;19909;-83
2022/08/11 14:33:47;;;;;;;;;;;34.60;31.70;;;;;;5031743;28;19945;-83
2022/08/11 14:36:13;;;;;;;;;;;34.90;31.60;;;;;;5032321;28;20292;-83
2022/08/11 14:38:39;;;;;;;;;;;35.10;31.10;;;;;;5036932;28;19912;-82
2022/08/11 14:49:19;;;;;;;;;;;36.60;30.50;;;;;;5040668;28;19928;-83
2022/08/11 14:51:45;;;;;;;;;;;37.10;32.60;;;;;;5056288;28;19909;-83
2022/08/11 14:56:55;;;;;;;;;;;37.30;30.20;;;;;;5041506;28;19916;-83
2022/08/11 14:59:22;;;;;;;;;;;37.60;28.40;;;;;;5041882;28;19909;-83
2022/08/11 15:04:33;;;;;;;;;;;38.70;27.60;;;;;;5042569;28;19916;-83
2022/08/11 15:06:59;;;;;;;;;;;40.20;28.60;;;;;;5056912;28;20311;-83
2022/08/11 15:09:24;;;;;;;;;;;42.00;27.40;;;;;;5041766;28;19917;-82
2022/08/11 15:12:08;;;;;;;;;;;44.00;26.20;;;;;;5042240;28;19936;-84
2022/08/11 15:17:22;;;;;;;;;;;47.20;25.70;;;;;;5042303;28;20410;-84
2022/08/11 15:25:18;;;;;;;;;;;49.00;22.30;;;;;;5041322;28;19964;-84
2022/08/11 15:38:56;;;;;;;;;;;50.90;20.70;;;;;;5034626;28;20391;-84
2022/08/11 15:47:00;;;;;;;;;;;50.80;20.50;;;;;;5023819;28;19940;-83
2022/08/11 15:49:31;;;;;;;;;;;50.20;20.00;;;;;;5023997;28;20021;-83
2022/08/11 15:52:00;;;;;;;;;;;50.00;20.70;;;;;;5019415;28;19940;-83
2022/08/11 15:54:29;;;;;;;;;;;50.20;20.90;;;;;;5032741;28;20280;-83
2022/08/11 15:56:57;;;;;;;;;;;50.30;20.40;;;;;;5033510;28;19909;-83
2022/08/11 16:04:56;;;;;;;;;;;50.10;21.40;;;;;;5022469;28;19995;-82
2022/08/11 16:07:26;;;;;;;;;;;49.90;21.30;;;;;;5032953;28;19915;-89
2022/08/11 16:10:06;;;;;;;;;;;49.60;19.90;;;;;;5031741;28;19909;-82
2022/08/11 16:12:34;;;;;;;;;;;49.50;22.40;;;;;;5025570;28;20396;-85
2022/08/11 16:17:50;;;;;;;;;;;49.20;21.80;;;;;;5033386;28;19916;-84
2022/08/11 16:20:18;;;;;;;;;;;48.90;21.20;;;;;;5033244;28;19909;-85
2022/08/11 16:22:46;;;;;;;;;;;48.60;20.70;;;;;;5033525;28;19909;-85
2022/08/11 16:25:14;;;;;;;;;;;48.30;21.00;;;;;;5032553;28;19920;-85
2022/08/11 16:27:46;;;;;;;;;;;48.10;21.00;;;;;;5031967;28;19968;-85
2022/08/11 16:30:13;;;;;;;;;;;47.80;20.30;;;;;;5032464;28;19975;-85
2022/08/11 16:32:40;;;;;;;;;;;47.50;20.90;;;;;;5033590;28;19988;-85
2022/08/11 16:40:37;;;;;;;;;;;43.90;21.60;;;;;;5033690;28;19920;-84
2022/08/11 16:48:35;;;;;;;;;;;40.30;25.80;;;;;;5033265;28;19964;-84
2022/08/11 16:51:00;;;;;;;;;;;39.40;26.80;;;;;;5033265;28;19945;-84
2022/08/11 16:53:27;;;;;;;;;;;38.70;28.10;;;;;;5033155;28;20373;-84
2022/08/11 16:55:53;;;;;;;;;;;38.10;28.90;;;;;;5032987;28;20288;-84
2022/08/11 17:01:04;;;;;;;;;;;37.00;28.50;;;;;;5033098;28;19955;-83
2022/08/11 17:14:40;;;;;;;;;;;35.40;34.50;;;;;;5033256;28;20292;-84
2022/08/11 17:17:08;;;;;;;;;;;35.20;35.90;;;;;;5032739;28;20527;-84
2022/08/11 17:19:35;;;;;;;;;;;35.10;32.60;;;;;;5032823;28;19909;-84
2022/08/11 17:24:46;;;;;;;;;;;35.00;35.70;;;;;;5033256;28;19916;-84
2022/08/11 17:27:15;;;;;;;;;;;34.90;33.30;;;;;;5031738;28;19910;-89
2022/08/11 17:29:49;;;;;;;;;;;34.80;32.00;;;;;;5031719;28;19913;-85
2022/08/11 17:37:55;;;;;;;;;;;34.20;31.90;;;;;;5032603;28;19916;-85
2022/08/11 17:40:23;;;;;;;;;;;34.00;32.80;;;;;;5031323;28;19963;-85
2022/08/11 17:48:42;;;;;;;;;;;33.40;33.60;;;;;;4990595;28;19922;-85
2022/08/11 17:51:10;;;;;;;;;;;33.20;34.60;;;;;;4974418;28;19957;-86
2022/08/11 18:01:53;;;;;;;;;;;32.60;34.20;;;;;;5032335;28;19979;-84
2022/08/11 18:04:20;;;;;;;;;;;32.40;35.90;;;;;;5031052;28;20343;-85
2022/08/11 18:06:45;;;;;;;;;;;32.30;35.70;;;;;;5031981;28;20380;-85
